createdAt,value
2018-04-10T00:01:30.180Z,11.50
2018-04-10T00:03:41.789Z,12.97
2018-04-10T00:05:53.861Z,12.80
2018-04-10T00:08:05.312Z,12.13
2018-04-10T00:10:16.701Z,16.33
2018-04-10T00:12:28.004Z,12.20
2018-04-10T00:14:39.356Z,11.17
2018-04-10T00:16:50.729Z,11.67
2018-04-10T00:19:02.069Z,11.40
2018-04-10T00:21:14.139Z,16.43
2018-04-10T00:23:25.524Z,14.20
2018-04-10T00:25:36.856Z,13.00
2018-04-10T00:27:48.238Z,13.27
2018-04-10T00:29:59.720Z,9.33
2018-04-10T00:32:11.160Z,11.40
2018-04-10T00:34:23.378Z,11.50
2018-04-10T00:36:34.725Z,12.63
2018-04-10T00:38:46.829Z,11.83
2018-04-10T00:40:58.958Z,15.40
2018-04-10T00:43:10.303Z,12.20
2018-04-10T00:45:22.387Z,12.03
2018-04-10T00:47:33.741Z,13.23
2018-04-10T00:49:45.042Z,12.23
2018-04-10T00:51:56.373Z,12.80
2018-04-10T00:54:07.697Z,10.10
2018-04-10T00:56:19.006Z,11.50
2018-04-10T00:58:30.320Z,13.83
2018-04-10T01:00:41.698Z,13.33
2018-04-10T01:02:53.019Z,10.83
2018-04-10T01:05:05.116Z,13.80
2018-04-10T01:07:17.171Z,10.93
2018-04-10T01:09:29.300Z,13.33
2018-04-10T01:11:40.633Z,11.37
2018-04-10T01:13:51.944Z,13.73
2018-04-10T01:16:03.437Z,9.30
2018-04-10T01:18:14.760Z,12.23
2018-04-10T01:20:26.108Z,10.60
2018-04-10T01:22:38.176Z,10.70
2018-04-10T01:24:49.504Z,10.07
2018-04-10T01:27:00.850Z,10.43
2018-04-10T01:29:12.937Z,11.00
2018-04-10T01:31:24.285Z,10.17
2018-04-10T01:33:36.397Z,11.17
2018-04-10T01:35:47.805Z,11.03
2018-04-10T01:37:59.876Z,13.63
2018-04-10T01:40:11.264Z,11.43
2018-04-10T01:42:22.612Z,9.47
2018-04-10T01:44:33.989Z,8.07
2018-04-10T01:46:45.329Z,9.73
2018-04-10T01:48:56.642Z,10.70
2018-04-10T01:51:07.968Z,10.43
2018-04-10T01:53:19.340Z,13.40
2018-04-10T01:55:31.532Z,11.47
2018-04-10T01:57:42.884Z,12.27
2018-04-10T01:59:54.197Z,9.97
2018-04-10T02:02:06.292Z,10.57
2018-04-10T02:04:18.357Z,11.73
2018-04-10T02:06:29.713Z,8.47
2018-04-10T02:08:41.048Z,9.13
2018-04-10T02:10:53.157Z,11.40
2018-04-10T02:13:05.224Z,10.83
2018-04-10T02:15:16.554Z,8.77
2018-04-10T02:17:27.904Z,10.43
2018-04-10T02:19:40.021Z,11.43
2018-04-10T02:21:51.472Z,8.70
2018-04-10T02:24:03.566Z,9.63
2018-04-10T02:26:15.764Z,13.23
2018-04-10T02:28:27.956Z,10.33
2018-04-10T02:30:39.401Z,10.80
2018-04-10T02:32:50.744Z,11.17
2018-04-10T02:35:02.089Z,10.10
2018-04-10T02:37:13.459Z,8.63
2018-04-10T02:39:24.812Z,11.27
2018-04-10T02:41:36.161Z,8.73
2018-04-10T02:43:47.581Z,9.70
2018-04-10T02:45:58.900Z,8.43
2018-04-10T02:48:10.983Z,8.80
2018-04-10T02:50:22.320Z,7.93
2018-04-10T02:52:33.753Z,7.43
2018-04-10T02:54:45.849Z,7.67
2018-04-10T02:56:57.940Z,10.07
2018-04-10T02:59:10.090Z,9.00
2018-04-10T03:01:21.504Z,9.60
2018-04-10T03:03:32.866Z,7.20
2018-04-10T03:05:44.244Z,9.77
2018-04-10T03:07:55.641Z,9.93
2018-04-10T03:10:06.979Z,8.30
2018-04-10T03:12:18.364Z,7.00
2018-04-10T03:14:29.796Z,8.67
2018-04-10T03:16:41.916Z,7.83
2018-04-10T03:18:53.232Z,6.93
2018-04-10T03:21:04.561Z,7.93
2018-04-10T03:23:15.904Z,8.83
2018-04-10T03:25:27.256Z,7.80
2018-04-10T03:27:39.473Z,7.57
2018-04-10T03:29:50.849Z,9.47
2018-04-10T03:32:02.301Z,7.07
2018-04-10T03:34:13.624Z,6.93
2018-04-10T03:36:24.992Z,9.07
2018-04-10T03:38:36.336Z,7.73
2018-04-10T03:40:47.775Z,8.53
2018-04-10T03:42:59.825Z,7.10
2018-04-10T03:45:11.175Z,9.53
2018-04-10T03:47:22.512Z,8.23
2018-04-10T03:49:33.841Z,11.03
2018-04-10T03:51:45.172Z,8.93
2018-04-10T03:53:56.500Z,9.97
2018-04-10T03:56:07.814Z,11.10
2018-04-10T03:58:19.157Z,9.90
2018-04-10T04:00:30.468Z,12.33
2018-04-10T04:02:41.827Z,11.17
2018-04-10T04:04:53.156Z,4.00
2018-04-10T04:07:05.240Z,11.93
2018-04-10T04:09:16.773Z,8.63
2018-04-10T04:11:28.188Z,10.57
2018-04-10T04:13:39.609Z,10.80
2018-04-10T04:15:50.924Z,12.87
2018-04-10T04:18:02.409Z,10.73
2018-04-10T04:20:25.881Z,11.87
2018-04-10T04:22:39.116Z,11.33
2018-04-10T04:24:50.451Z,10.83
2018-04-10T04:27:01.805Z,15.10
2018-04-10T04:29:13.185Z,9.60
2018-04-10T04:31:24.545Z,7.73
2018-04-10T04:33:36.730Z,9.53
2018-04-10T04:35:48.188Z,13.60
2018-04-10T04:37:59.532Z,12.83
2018-04-10T04:40:10.844Z,13.70
2018-04-10T04:42:22.228Z,12.40
2018-04-10T04:44:33.652Z,13.10
2018-04-10T04:46:45.907Z,11.67
2018-04-10T04:48:57.270Z,11.37
2018-04-10T04:51:08.625Z,11.37
2018-04-10T04:53:19.937Z,12.60
2018-04-10T04:55:32.036Z,14.37
2018-04-10T04:57:43.449Z,20.50
2018-04-10T04:59:55.548Z,21.53
2018-04-10T05:02:07.614Z,16.70
2018-04-10T05:04:18.965Z,12.67
2018-04-10T05:06:30.384Z,13.80
2018-04-10T05:08:41.809Z,14.70
2018-04-10T05:10:53.153Z,11.70
2018-04-10T05:13:04.544Z,9.33
2018-04-10T05:15:16.665Z,9.87
2018-04-10T05:17:28.101Z,8.03
2018-04-10T05:19:39.420Z,8.77
2018-04-10T05:21:50.784Z,9.13
2018-04-10T05:24:02.900Z,9.10
2018-04-10T05:26:14.334Z,10.73
2018-04-10T05:28:25.687Z,11.97
2018-04-10T05:30:37.052Z,5.23
2018-04-10T05:32:48.600Z,9.63
2018-04-10T05:35:00.648Z,9.60
2018-04-10T05:37:11.989Z,12.60
2018-04-10T05:39:23.304Z,13.00
2018-04-10T05:41:34.657Z,12.00
2018-04-10T05:43:45.992Z,8.27
2018-04-10T05:45:58.077Z,12.73
2018-04-10T05:48:09.486Z,11.50
2018-04-10T05:50:20.805Z,13.47
2018-04-10T05:52:32.905Z,10.30
2018-04-10T05:54:44.252Z,10.63
2018-04-10T05:56:55.596Z,9.93
2018-04-10T05:59:06.951Z,15.57
2018-04-10T06:01:18.304Z,13.67
2018-04-10T06:03:29.644Z,14.17
2018-04-10T06:05:41.764Z,11.33
2018-04-10T06:07:53.109Z,8.50
2018-04-10T06:10:05.201Z,11.53
2018-04-10T06:12:17.258Z,10.43
2018-04-10T06:14:28.615Z,10.53
2018-04-10T06:16:39.941Z,9.07
2018-04-10T06:18:51.272Z,9.13
2018-04-10T06:21:02.610Z,9.60
2018-04-10T06:23:13.953Z,12.23
2018-04-10T06:25:25.305Z,11.27
2018-04-10T06:27:36.624Z,9.87
2018-04-10T06:29:48.064Z,18.93
2018-04-10T06:31:59.365Z,11.90
2018-04-10T06:34:10.708Z,12.70
2018-04-10T06:36:22.044Z,12.20
2018-04-10T06:38:33.372Z,13.57
2018-04-10T06:40:44.724Z,19.57
2018-04-10T06:42:56.920Z,16.03
2018-04-10T06:45:09.005Z,18.37
2018-04-10T06:47:20.408Z,11.93
2018-04-10T06:49:32.513Z,16.27
2018-04-10T06:51:43.876Z,17.37
2018-04-10T06:53:55.972Z,14.10
2018-04-10T06:56:08.077Z,15.50
2018-04-10T06:58:19.424Z,12.23
2018-04-10T07:00:30.744Z,15.03
2018-04-10T07:02:42.105Z,13.17
2018-04-10T07:04:54.278Z,14.03
2018-04-10T07:07:05.665Z,11.23
2018-04-10T07:09:17.132Z,12.77
2018-04-10T07:11:28.540Z,12.73
2018-04-10T07:13:40.634Z,11.40
2018-04-10T07:15:52.771Z,13.63
2018-04-10T07:18:04.177Z,14.50
2018-04-10T07:20:15.512Z,9.40
2018-04-10T07:22:26.850Z,11.07
2018-04-10T07:24:38.278Z,10.30
2018-04-10T07:26:49.608Z,12.13
2018-04-10T07:29:01.132Z,14.43
2018-04-10T07:31:12.544Z,10.83
2018-04-10T07:33:23.889Z,11.43
2018-04-10T07:35:35.187Z,10.47
2018-04-10T07:37:46.597Z,14.63
2018-04-10T07:39:57.937Z,14.23
2018-04-10T07:42:09.276Z,13.30
2018-04-10T07:44:21.368Z,12.87
2018-04-10T07:46:33.431Z,10.97
2018-04-10T07:48:44.929Z,12.67
2018-04-10T07:50:56.392Z,11.73
2018-04-10T07:53:07.708Z,14.60
2018-04-10T07:55:19.828Z,12.20
2018-04-10T07:57:31.129Z,9.70
2018-04-10T07:59:42.514Z,11.57
2018-04-10T08:01:53.841Z,11.90
2018-04-10T08:04:05.915Z,10.20
2018-04-10T08:06:17.328Z,11.30
2018-04-10T08:08:28.755Z,12.03
2018-04-10T08:10:40.211Z,12.17
2018-04-10T08:12:51.535Z,11.33
2018-04-10T08:15:02.941Z,11.80
2018-04-10T08:17:15.028Z,9.93
2018-04-10T08:19:27.153Z,13.03
2018-04-10T08:21:38.568Z,13.43
2018-04-10T08:23:49.888Z,10.63
2018-04-10T08:26:01.964Z,11.10
2018-04-10T08:28:13.324Z,10.97
2018-04-10T08:30:24.721Z,8.40
2018-04-10T08:32:36.132Z,8.73
2018-04-10T08:34:47.464Z,10.03
2018-04-10T08:36:58.785Z,11.03
2018-04-10T08:39:10.117Z,12.97
2018-04-10T08:41:21.471Z,14.47
2018-04-10T08:43:32.821Z,12.20
2018-04-10T08:45:44.129Z,10.60
2018-04-10T08:47:55.484Z,10.70
2018-04-10T08:50:06.856Z,9.57
2018-04-10T08:52:18.175Z,11.53
2018-04-10T08:54:29.514Z,10.50
2018-04-10T08:56:40.848Z,9.00
2018-04-10T08:58:52.201Z,11.70
2018-04-10T09:01:03.565Z,9.70
2018-04-10T09:03:14.892Z,8.37
2018-04-10T09:05:26.225Z,10.90
2018-04-10T09:07:37.581Z,10.87
2018-04-10T09:09:48.993Z,12.10
2018-04-10T09:12:00.298Z,9.17
2018-04-10T09:14:11.612Z,9.57
2018-04-10T09:16:23.705Z,10.27
2018-04-10T09:18:35.764Z,8.07
2018-04-10T09:20:47.218Z,7.57
2018-04-10T09:22:58.573Z,10.40
2018-04-10T09:25:09.895Z,10.90
2018-04-10T09:27:21.301Z,8.33
2018-04-10T09:29:33.419Z,9.37
2018-04-10T09:31:44.892Z,8.87
2018-04-10T09:33:56.989Z,11.87
2018-04-10T09:36:09.988Z,10.80
2018-04-10T09:38:22.081Z,7.47
2018-04-10T09:40:33.414Z,9.53
2018-04-10T09:42:44.939Z,10.97
2018-04-10T09:44:56.369Z,9.40
2018-04-10T09:47:07.864Z,7.53
2018-04-10T09:49:19.217Z,10.73
2018-04-10T09:51:30.663Z,11.07
2018-04-10T09:53:42.017Z,8.57
2018-04-10T09:55:53.443Z,8.80
2018-04-10T09:58:06.157Z,7.87
2018-04-10T10:00:24.372Z,11.17
2018-04-10T10:02:36.502Z,10.67
2018-04-10T10:04:47.889Z,9.77
2018-04-10T10:06:59.311Z,9.67
2018-04-10T10:09:10.779Z,8.33
2018-04-10T10:11:22.195Z,9.30
2018-04-10T10:13:34.335Z,9.60
2018-04-10T10:15:45.710Z,6.90
2018-04-10T10:17:57.106Z,8.37
2018-04-10T10:20:08.499Z,8.30
2018-04-10T10:22:19.940Z,8.20
2018-04-10T10:24:31.320Z,8.33
2018-04-10T10:26:42.702Z,6.60
2018-04-10T10:28:54.146Z,8.77
2018-04-10T10:31:06.323Z,9.47
2018-04-10T10:33:18.277Z,8.90
2018-04-10T10:35:29.811Z,12.33
2018-04-10T10:37:41.397Z,8.53
2018-04-10T10:39:52.830Z,7.57
2018-04-10T10:42:04.311Z,8.87
2018-04-10T10:44:15.726Z,8.27
2018-04-10T10:46:27.114Z,6.03
2018-04-10T10:48:38.521Z,11.37
2018-04-10T10:50:49.913Z,7.37
2018-04-10T10:53:01.454Z,8.40
2018-04-10T10:55:12.861Z,8.07
2018-04-10T10:57:25.017Z,9.37
2018-04-10T10:59:36.410Z,8.77
2018-04-10T11:01:47.826Z,8.00
2018-04-10T11:03:59.561Z,8.23
2018-04-10T11:06:10.937Z,8.00
2018-04-10T11:08:22.318Z,8.57
2018-04-10T11:10:33.756Z,7.60
2018-04-10T11:12:45.142Z,8.10
2018-04-10T11:14:56.613Z,9.73
2018-04-10T11:17:07.989Z,7.13
2018-04-10T11:19:19.435Z,9.77
2018-04-10T11:21:30.833Z,9.47
2018-04-10T11:23:42.229Z,8.07
2018-04-10T11:25:53.704Z,7.90
2018-04-10T11:28:05.449Z,8.50
2018-04-10T11:30:16.958Z,8.83
2018-04-10T11:32:28.350Z,10.10
2018-04-10T11:34:40.478Z,11.67
2018-04-10T11:36:51.950Z,9.80
2018-04-10T11:39:03.494Z,11.83
2018-04-10T11:41:14.931Z,11.00
2018-04-10T11:43:26.366Z,9.37
2018-04-10T11:45:38.527Z,8.33
2018-04-10T11:47:49.941Z,6.93
2018-04-10T11:50:01.623Z,13.17
2018-04-10T11:52:13.835Z,11.83
2018-04-10T11:54:25.963Z,9.90
2018-04-10T11:56:37.316Z,14.63
2018-04-10T11:58:48.645Z,12.60
2018-04-10T12:01:00.038Z,13.50
2018-04-10T12:03:11.419Z,12.13
2018-04-10T12:05:22.829Z,12.23
2018-04-10T12:07:34.900Z,12.67
2018-04-10T12:09:46.313Z,15.33
2018-04-10T12:11:57.714Z,16.27
2018-04-10T12:14:09.217Z,12.53
2018-04-10T12:16:20.554Z,14.93
2018-04-10T12:18:31.929Z,14.27
2018-04-10T12:20:44.032Z,14.30
2018-04-10T12:22:55.377Z,12.93
2018-04-10T12:25:06.752Z,17.87
2018-04-10T12:27:18.109Z,12.10
2018-04-10T12:29:29.767Z,15.77
2018-04-10T12:31:41.993Z,13.13
2018-04-10T12:33:53.429Z,17.73
2018-04-10T12:36:05.519Z,15.30
2018-04-10T12:38:16.889Z,15.03
2018-04-10T12:40:29.089Z,12.33
2018-04-10T12:42:41.247Z,12.03
2018-04-10T12:44:52.592Z,16.83
2018-04-10T12:47:04.016Z,17.07
2018-04-10T12:49:15.353Z,14.23
2018-04-10T12:51:26.748Z,15.17
2018-04-10T12:53:38.114Z,16.30
2018-04-10T12:55:49.458Z,13.40
2018-04-10T12:58:01.660Z,18.70
2018-04-10T13:00:13.758Z,20.97
2018-04-10T13:02:25.924Z,17.57
2018-04-10T13:04:37.396Z,16.27
2018-04-10T13:06:48.740Z,15.13
2018-04-10T13:09:00.204Z,16.60
2018-04-10T13:11:12.301Z,14.47
2018-04-10T13:13:23.686Z,17.00
2018-04-10T13:15:35.040Z,18.23
2018-04-10T13:17:47.189Z,16.03
2018-04-10T13:19:58.608Z,17.93
2018-04-10T13:22:10.037Z,15.97
2018-04-10T13:24:21.531Z,15.03
2018-04-10T13:26:32.864Z,16.10
2018-04-10T13:28:44.320Z,13.57
2018-04-10T13:30:55.729Z,17.00
2018-04-10T13:33:07.801Z,15.10
2018-04-10T13:35:19.154Z,15.03
2018-04-10T13:37:30.481Z,14.63
2018-04-10T13:39:42.640Z,17.53
2018-04-10T13:41:54.157Z,16.50
2018-04-10T13:44:06.238Z,16.57
2018-04-10T13:46:18.995Z,19.20
2018-04-10T13:48:30.397Z,17.07
2018-04-10T13:50:41.853Z,19.43
2018-04-10T13:52:53.221Z,13.03
2018-04-10T13:55:06.246Z,13.57
2018-04-10T13:57:17.723Z,13.97
2018-04-10T13:59:29.081Z,13.20
2018-04-10T14:01:41.341Z,16.10
2018-04-10T14:03:52.761Z,14.87
2018-04-10T14:06:04.249Z,15.37
2018-04-10T14:08:16.392Z,16.57
2018-04-10T14:10:27.776Z,18.37
2018-04-10T14:12:39.161Z,18.83
2018-04-10T14:14:50.975Z,17.80
2018-04-10T14:17:02.517Z,13.80
2018-04-10T14:19:13.991Z,17.00
2018-04-10T14:21:25.366Z,16.77
2018-04-10T14:23:36.783Z,13.73
2018-04-10T14:25:48.199Z,12.40
2018-04-10T14:27:59.724Z,15.60
2018-04-10T14:30:11.122Z,12.20
2018-04-10T14:32:22.534Z,10.63
2018-04-10T14:34:34.106Z,12.37
2018-04-10T14:36:46.284Z,10.07
2018-04-10T14:38:57.708Z,10.37
2018-04-10T14:41:09.890Z,9.83
2018-04-10T14:43:21.319Z,9.17
2018-04-10T14:45:33.089Z,7.40
2018-04-10T14:47:44.511Z,9.13
2018-04-10T14:49:55.994Z,9.23
2018-04-10T14:52:07.414Z,7.50
2018-04-10T14:54:18.825Z,7.73
2018-04-10T14:56:30.301Z,6.50
2018-04-10T14:58:41.685Z,6.23
2018-04-10T15:00:53.122Z,6.23
2018-04-10T15:03:05.266Z,6.17
2018-04-10T15:05:16.720Z,6.00
2018-04-10T15:07:36.287Z,6.63
2018-04-10T15:09:48.631Z,4.07
2018-04-10T15:12:00.076Z,8.77
2018-04-10T15:14:11.463Z,6.90
2018-04-10T15:16:22.878Z,7.27
2018-04-10T15:18:34.317Z,6.13
2018-04-10T15:20:45.761Z,6.20
2018-04-10T15:22:57.135Z,9.07
2018-04-10T15:25:08.526Z,7.27
2018-04-10T15:27:19.950Z,9.80
2018-04-10T15:29:31.334Z,8.97
2018-04-10T15:31:42.849Z,10.77
2018-04-10T15:33:54.231Z,6.17
2018-04-10T15:36:05.679Z,6.03
2018-04-10T15:38:17.093Z,7.23
2018-04-10T15:40:28.671Z,8.53
2018-04-10T15:42:40.141Z,8.10
2018-04-10T15:44:51.552Z,8.57
2018-04-10T15:47:03.775Z,5.53
2018-04-10T15:49:15.144Z,3.73
2018-04-10T15:51:26.966Z,6.00
2018-04-10T15:53:38.460Z,6.27
2018-04-10T15:55:49.865Z,4.33
2018-04-10T15:58:01.635Z,5.10
2018-04-10T16:00:12.995Z,3.83
2018-04-10T16:02:24.655Z,5.30
2018-04-10T16:04:36.105Z,3.60
2018-04-10T16:06:48.090Z,2.83
2018-04-10T16:08:59.621Z,3.87
2018-04-10T16:11:11.035Z,8.63
2018-04-10T16:13:22.730Z,3.93
2018-04-10T16:15:34.323Z,8.50
2018-04-10T16:17:45.728Z,5.03
2018-04-10T16:19:57.726Z,3.67
2018-04-10T16:22:09.888Z,1.83
2018-04-10T16:24:21.342Z,2.53
2018-04-10T16:26:32.855Z,4.20
2018-04-10T16:28:44.373Z,1.03
2018-04-10T16:30:55.715Z,3.57
2018-04-10T16:33:08.524Z,2.60
2018-04-10T16:35:20.009Z,1.83
2018-04-10T16:37:31.426Z,3.00
2018-04-10T16:39:43.377Z,1.43
2018-04-10T16:41:54.816Z,2.00
2018-04-10T16:44:06.270Z,4.17
2018-04-10T16:46:19.310Z,2.47
2018-04-10T16:48:30.949Z,1.63
2018-04-10T16:50:42.337Z,0.90
2018-04-10T16:52:53.880Z,2.20
2018-04-10T16:55:05.308Z,1.13
2018-04-10T16:57:16.810Z,1.30
2018-04-10T16:59:28.271Z,2.20
2018-04-10T17:01:41.485Z,1.13
2018-04-10T17:03:52.955Z,1.20
2018-04-10T17:06:04.464Z,1.33
2018-04-10T17:08:17.632Z,1.43
2018-04-10T17:10:29.038Z,2.03
2018-04-10T17:12:40.500Z,3.33
2018-04-10T17:14:51.833Z,1.70
2018-04-10T17:17:03.345Z,1.37
2018-04-10T17:19:14.858Z,1.10
2018-04-10T17:21:26.954Z,2.67
2018-04-10T17:23:38.345Z,3.43
2018-04-10T17:25:49.677Z,2.40
2018-04-10T17:28:01.126Z,3.50
2018-04-10T17:30:13.215Z,2.03
2018-04-10T17:32:25.288Z,2.53
2018-04-10T17:34:36.646Z,1.70
2018-04-10T17:36:48.054Z,1.80
2018-04-10T17:38:59.540Z,1.67
2018-04-10T17:41:10.949Z,2.03
2018-04-10T17:43:22.385Z,1.47
2018-04-10T17:45:33.816Z,2.07
2018-04-10T17:47:45.225Z,1.53
2018-04-10T17:49:57.302Z,1.57
2018-04-10T17:52:08.714Z,2.97
2018-04-10T17:54:21.581Z,2.23
2018-04-10T17:56:33.018Z,3.23
2018-04-10T17:58:44.387Z,2.50
2018-04-10T18:00:55.753Z,3.83
2018-04-10T18:03:07.265Z,2.97
2018-04-10T18:05:18.626Z,2.03
2018-04-10T18:07:29.980Z,2.90
2018-04-10T18:09:41.325Z,2.77
2018-04-10T18:11:53.502Z,1.87
2018-04-10T18:14:04.939Z,2.23
2018-04-10T18:16:16.284Z,3.63
2018-04-10T18:18:27.653Z,2.47
2018-04-10T18:20:39.732Z,2.77
2018-04-10T18:22:52.177Z,2.30
2018-04-10T18:25:03.587Z,2.23
2018-04-10T18:27:14.941Z,2.63
2018-04-10T18:29:26.312Z,4.37
2018-04-10T18:31:37.659Z,2.27
2018-04-10T18:33:49.775Z,2.83
2018-04-10T18:36:01.228Z,2.60
2018-04-10T18:38:12.562Z,2.53
2018-04-10T18:40:23.954Z,1.80
2018-04-10T18:42:35.343Z,2.00
2018-04-10T18:44:46.809Z,1.90
2018-04-10T18:46:58.177Z,1.77
2018-04-10T18:49:09.563Z,2.43
2018-04-10T18:51:21.806Z,4.67
2018-04-10T18:53:33.164Z,2.50
2018-04-10T18:55:44.616Z,2.37
2018-04-10T18:57:55.974Z,2.57
2018-04-10T19:00:07.362Z,2.03
2018-04-10T19:02:18.905Z,2.33
2018-04-10T19:04:30.327Z,2.20
2018-04-10T19:06:41.656Z,2.90
2018-04-10T19:08:53.164Z,3.03
2018-04-10T19:11:05.341Z,2.53
2018-04-10T19:13:17.527Z,2.33
2018-04-10T19:15:28.917Z,1.70
2018-04-10T19:17:40.249Z,2.07
2018-04-10T19:19:51.650Z,2.20
2018-04-10T19:22:03.081Z,1.73
2018-04-10T19:24:15.197Z,3.00
2018-04-10T19:26:26.598Z,2.70
2018-04-10T19:28:37.932Z,1.93
2018-04-10T19:30:50.017Z,1.73
2018-04-10T19:33:02.108Z,1.80
2018-04-10T19:35:14.240Z,2.10
2018-04-10T19:37:25.649Z,3.30
2018-04-10T19:39:36.989Z,2.23
2018-04-10T19:41:48.375Z,2.37
2018-04-10T19:43:59.778Z,1.90
2018-04-10T19:46:11.149Z,1.93
2018-04-10T19:48:22.580Z,2.17
2018-04-10T19:50:33.930Z,2.67
2018-04-10T19:52:45.628Z,2.57
2018-04-10T19:54:57.018Z,3.10
2018-04-10T19:57:08.368Z,2.07
2018-04-10T19:59:19.772Z,1.97
2018-04-10T20:01:31.408Z,2.97
2018-04-10T20:03:42.986Z,3.33
2018-04-10T20:05:54.589Z,1.97
2018-04-10T20:08:06.203Z,1.83
2018-04-10T20:10:17.846Z,1.90
2018-04-10T20:12:29.284Z,3.17
2018-04-10T20:14:41.497Z,2.30
2018-04-10T20:16:53.766Z,2.20
2018-04-10T20:19:05.295Z,3.20
2018-04-10T20:21:17.621Z,4.43
2018-04-10T20:23:28.977Z,1.60
2018-04-10T20:25:40.380Z,3.57
2018-04-10T20:27:52.633Z,1.53
2018-04-10T20:30:04.739Z,2.57
2018-04-10T20:32:16.864Z,2.53
2018-04-10T20:34:28.246Z,3.93
2018-04-10T20:36:39.585Z,2.47
2018-04-10T20:38:51.672Z,1.50
2018-04-10T20:41:03.027Z,3.97
2018-04-10T20:43:14.420Z,1.83
2018-04-10T20:45:25.759Z,3.30
2018-04-10T20:47:37.268Z,2.83
2018-04-10T20:49:48.644Z,2.70
2018-04-10T20:52:00.796Z,2.77
2018-04-10T20:54:12.152Z,2.20
2018-04-10T20:56:24.277Z,2.10
2018-04-10T20:58:35.599Z,2.50
2018-04-10T21:00:46.967Z,2.73
2018-04-10T21:02:58.316Z,3.87
2018-04-10T21:05:09.637Z,2.27
2018-04-10T21:07:21.004Z,1.73
2018-04-10T21:09:32.383Z,2.73
2018-04-10T21:11:43.842Z,2.93
2018-04-10T21:13:55.222Z,2.87
2018-04-10T21:16:06.563Z,2.87
2018-04-10T21:18:18.667Z,5.43
2018-04-10T21:20:30.728Z,3.80
2018-04-10T21:22:42.091Z,2.83
2018-04-10T21:24:53.482Z,2.23
2018-04-10T21:27:04.835Z,3.57
2018-04-10T21:29:16.178Z,2.33
2018-04-10T21:31:28.424Z,2.87
2018-04-10T21:33:39.873Z,2.30
2018-04-10T21:35:51.280Z,3.90
2018-04-10T21:38:03.359Z,4.70
2018-04-10T21:40:14.712Z,2.03
2018-04-10T21:42:26.063Z,2.40
2018-04-10T21:44:37.388Z,2.10
2018-04-10T21:46:49.105Z,3.23
2018-04-10T21:49:00.448Z,1.67
2018-04-10T21:51:11.889Z,1.50
2018-04-10T21:53:23.245Z,2.17
2018-04-10T21:55:34.574Z,2.17
2018-04-10T21:57:46.065Z,2.13
2018-04-10T21:59:57.633Z,2.17
2018-04-10T22:02:09.710Z,2.27
2018-04-10T22:04:21.775Z,2.93
2018-04-10T22:06:33.143Z,2.30
2018-04-10T22:08:45.303Z,2.13
2018-04-10T22:10:56.633Z,2.67
2018-04-10T22:13:08.040Z,3.03
2018-04-10T22:15:19.396Z,3.10
2018-04-10T22:17:30.725Z,2.03
2018-04-10T22:19:42.086Z,3.17
2018-04-10T22:21:54.166Z,1.97
2018-04-10T22:24:05.510Z,2.43
2018-04-10T22:26:16.865Z,2.13
2018-04-10T22:28:28.272Z,2.07
2018-04-10T22:30:39.601Z,4.43
2018-04-10T22:32:51.762Z,3.17
2018-04-10T22:35:03.849Z,2.50
2018-04-10T22:37:16.798Z,2.50
2018-04-10T22:39:28.977Z,3.47
2018-04-10T22:41:41.085Z,4.63
2018-04-10T22:43:52.417Z,3.20
2018-04-10T22:46:03.730Z,3.43
2018-04-10T22:48:15.074Z,2.20
2018-04-10T22:50:26.392Z,2.70
2018-04-10T22:52:37.845Z,3.50
2018-04-10T22:54:49.153Z,2.03
2018-04-10T22:57:00.537Z,4.37
2018-04-10T22:59:11.867Z,4.40
2018-04-10T23:01:23.211Z,2.30
2018-04-10T23:03:34.630Z,2.00
2018-04-10T23:05:45.913Z,2.33
2018-04-10T23:07:57.303Z,2.03
2018-04-10T23:10:08.658Z,3.47
2018-04-10T23:12:20.326Z,3.20
2018-04-10T23:14:31.677Z,2.40
2018-04-10T23:16:43.802Z,2.30
2018-04-10T23:18:55.166Z,2.37
2018-04-10T23:21:06.514Z,2.70
2018-04-10T23:23:17.917Z,3.93
2018-04-10T23:25:30.010Z,2.53
2018-04-10T23:27:42.124Z,3.73
2018-04-10T23:29:53.519Z,2.83
2018-04-10T23:32:04.836Z,1.80
2018-04-10T23:34:16.262Z,3.27
2018-04-10T23:36:27.597Z,2.77
2018-04-10T23:38:38.974Z,2.07
2018-04-10T23:40:50.391Z,3.30
2018-04-10T23:43:02.482Z,3.07
2018-04-10T23:45:15.013Z,2.13
2018-04-10T23:47:26.386Z,3.90
2018-04-10T23:49:37.812Z,3.00
2018-04-10T23:51:49.878Z,1.70
2018-04-10T23:54:01.230Z,2.47
2018-04-10T23:56:13.300Z,2.90
2018-04-10T23:58:24.677Z,2.13
